Terminal Aerodrome Forecast
Issued by NWS

Current Version | Previous Version | Text Only | Print | Product List | Glossary On
Versions: 1 2 3 4 5 6 7 8 9 10 11 12 13 14 15 16 17 18 19 20 21 22 23 24 25 26 27 28 29 30 31 32 33 34 35 36 37 38 39 40 41 42 43 44
000
FTUS43 KMKX 100520
TAFENW
TAF
KENW 100520Z 1006/1106 VRB02KT P6SM SKC
     FM100800 VRB02KT P6SM BCFG SKC
      TEMPO 1008/1011 3SM BR
     FM101500 09007KT P6SM FEW040
     FM110100 14005KT P6SM SCT250=

USA.gov is the U.S. government's official web portal to all federal, state and local government web resources and services.